sensor_id;sensor_type;location;lat;lon;timestamp;P1;durP1;ratioP1;P2;durP2;ratioP2
18338;SDS011;9295;44.484;11.240;2022-07-10T00:00:03;3.57;;;1.90;;
18338;SDS011;9295;44.484;11.240;2022-07-10T00:02:37;3.73;;;1.83;;
18338;SDS011;9295;44.484;11.240;2022-07-10T00:05:06;4.20;;;1.90;;
18338;SDS011;9295;44.484;11.240;2022-07-10T00:07:43;3.03;;;1.70;;
18338;SDS011;9295;44.484;11.240;2022-07-10T00:10:12;3.97;;;2.00;;
18338;SDS011;9295;44.484;11.240;2022-07-10T00:12:40;4.13;;;1.57;;
18338;SDS011;9295;44.484;11.240;2022-07-10T00:15:11;2.93;;;1.90;;
18338;SDS011;9295;44.484;11.240;2022-07-10T00:17:40;3.60;;;2.10;;
18338;SDS011;9295;44.484;11.240;2022-07-10T00:20:09;2.63;;;1.90;;
18338;SDS011;9295;44.484;11.240;2022-07-10T00:25:44;5.23;;;2.03;;
18338;SDS011;9295;44.484;11.240;2022-07-10T00:28:13;4.77;;;2.07;;
18338;SDS011;9295;44.484;11.240;2022-07-10T00:30:43;7.83;;;1.87;;
18338;SDS011;9295;44.484;11.240;2022-07-10T00:33:12;3.40;;;2.20;;
18338;SDS011;9295;44.484;11.240;2022-07-10T00:35:40;3.93;;;1.77;;
18338;SDS011;9295;44.484;11.240;2022-07-10T00:38:09;3.27;;;1.63;;
18338;SDS011;9295;44.484;11.240;2022-07-10T00:40:37;3.93;;;1.90;;
18338;SDS011;9295;44.484;11.240;2022-07-10T00:43:07;3.93;;;1.90;;
18338;SDS011;9295;44.484;11.240;2022-07-10T00:45:36;2.87;;;1.80;;
18338;SDS011;9295;44.484;11.240;2022-07-10T00:48:06;4.47;;;2.20;;
18338;SDS011;9295;44.484;11.240;2022-07-10T00:50:36;3.93;;;1.87;;
18338;SDS011;9295;44.484;11.240;2022-07-10T00:53:04;6.03;;;2.00;;
18338;SDS011;9295;44.484;11.240;2022-07-10T00:55:34;3.20;;;1.90;;
18338;SDS011;9295;44.484;11.240;2022-07-10T00:58:04;3.23;;;1.83;;
18338;SDS011;9295;44.484;11.240;2022-07-10T01:00:34;6.60;;;2.23;;
18338;SDS011;9295;44.484;11.240;2022-07-10T01:03:05;7.00;;;2.03;;
18338;SDS011;9295;44.484;11.240;2022-07-10T01:05:35;3.37;;;1.83;;
18338;SDS011;9295;44.484;11.240;2022-07-10T01:08:05;5.00;;;1.90;;
18338;SDS011;9295;44.484;11.240;2022-07-10T01:10:34;5.00;;;1.90;;
18338;SDS011;9295;44.484;11.240;2022-07-10T01:13:02;3.40;;;2.23;;
18338;SDS011;9295;44.484;11.240;2022-07-10T01:15:31;3.63;;;2.00;;
18338;SDS011;9295;44.484;11.240;2022-07-10T01:18:02;3.90;;;2.10;;
18338;SDS011;9295;44.484;11.240;2022-07-10T01:20:32;2.20;;;1.60;;
18338;SDS011;9295;44.484;11.240;2022-07-10T01:23:02;3.63;;;1.80;;
18338;SDS011;9295;44.484;11.240;2022-07-10T01:25:31;4.50;;;2.50;;
18338;SDS011;9295;44.484;11.240;2022-07-10T01:28:00;5.30;;;2.03;;
18338;SDS011;9295;44.484;11.240;2022-07-10T01:30:28;4.93;;;2.20;;
18338;SDS011;9295;44.484;11.240;2022-07-10T01:32:57;4.33;;;1.90;;
18338;SDS011;9295;44.484;11.240;2022-07-10T01:35:26;5.20;;;1.90;;
18338;SDS011;9295;44.484;11.240;2022-07-10T01:37:55;4.00;;;1.70;;
18338;SDS011;9295;44.484;11.240;2022-07-10T01:40:25;5.33;;;1.87;;
18338;SDS011;9295;44.484;11.240;2022-07-10T01:42:54;3.90;;;2.00;;
18338;SDS011;9295;44.484;11.240;2022-07-10T01:45:23;3.73;;;2.00;;
18338;SDS011;9295;44.484;11.240;2022-07-10T01:47:52;4.90;;;2.37;;
18338;SDS011;9295;44.484;11.240;2022-07-10T01:50:20;3.07;;;1.93;;
18338;SDS011;9295;44.484;11.240;2022-07-10T01:52:49;4.60;;;2.10;;
18338;SDS011;9295;44.484;11.240;2022-07-10T01:55:18;3.80;;;1.93;;
18338;SDS011;9295;44.484;11.240;2022-07-10T01:57:48;3.47;;;1.70;;
18338;SDS011;9295;44.484;11.240;2022-07-10T02:00:16;3.03;;;1.70;;
18338;SDS011;9295;44.484;11.240;2022-07-10T02:02:45;2.50;;;1.80;;
18338;SDS011;9295;44.484;11.240;2022-07-10T02:05:33;4.73;;;2.00;;
18338;SDS011;9295;44.484;11.240;2022-07-10T02:08:01;4.30;;;1.80;;
18338;SDS011;9295;44.484;11.240;2022-07-10T02:10:30;2.80;;;1.80;;
18338;SDS011;9295;44.484;11.240;2022-07-10T02:13:00;2.83;;;1.90;;
18338;SDS011;9295;44.484;11.240;2022-07-10T02:15:29;4.00;;;1.60;;
18338;SDS011;9295;44.484;11.240;2022-07-10T02:17:57;3.07;;;2.10;;
18338;SDS011;9295;44.484;11.240;2022-07-10T02:20:26;4.37;;;2.43;;
18338;SDS011;9295;44.484;11.240;2022-07-10T02:22:54;6.70;;;2.17;;
18338;SDS011;9295;44.484;11.240;2022-07-10T02:25:23;5.77;;;1.87;;
18338;SDS011;9295;44.484;11.240;2022-07-10T02:27:52;2.50;;;1.70;;
18338;SDS011;9295;44.484;11.240;2022-07-10T02:30:22;4.33;;;1.70;;
18338;SDS011;9295;44.484;11.240;2022-07-10T02:32:51;2.87;;;1.67;;
18338;SDS011;9295;44.484;11.240;2022-07-10T02:35:19;5.50;;;1.70;;
18338;SDS011;9295;44.484;11.240;2022-07-10T02:37:48;3.57;;;1.73;;
18338;SDS011;9295;44.484;11.240;2022-07-10T02:40:16;4.97;;;2.23;;
18338;SDS011;9295;44.484;11.240;2022-07-10T02:42:45;3.17;;;1.60;;
18338;SDS011;9295;44.484;11.240;2022-07-10T02:45:14;3.80;;;1.87;;
18338;SDS011;9295;44.484;11.240;2022-07-10T02:47:44;2.93;;;2.10;;
18338;SDS011;9295;44.484;11.240;2022-07-10T02:50:12;4.37;;;2.00;;
18338;SDS011;9295;44.484;11.240;2022-07-10T02:52:41;3.30;;;1.87;;
18338;SDS011;9295;44.484;11.240;2022-07-10T02:55:10;4.33;;;1.73;;
18338;SDS011;9295;44.484;11.240;2022-07-10T02:57:38;4.67;;;1.97;;
18338;SDS011;9295;44.484;11.240;2022-07-10T03:00:07;3.43;;;1.90;;
18338;SDS011;9295;44.484;11.240;2022-07-10T03:02:38;3.67;;;2.00;;
18338;SDS011;9295;44.484;11.240;2022-07-10T03:05:08;2.53;;;1.60;;
18338;SDS011;9295;44.484;11.240;2022-07-10T03:07:37;3.10;;;2.00;;
18338;SDS011;9295;44.484;11.240;2022-07-10T03:10:05;2.97;;;2.00;;
18338;SDS011;9295;44.484;11.240;2022-07-10T03:12:34;3.63;;;1.80;;
18338;SDS011;9295;44.484;11.240;2022-07-10T03:15:03;3.20;;;1.70;;
18338;SDS011;9295;44.484;11.240;2022-07-10T03:17:33;3.13;;;1.60;;
18338;SDS011;9295;44.484;11.240;2022-07-10T03:20:01;4.27;;;1.93;;
18338;SDS011;9295;44.484;11.240;2022-07-10T03:22:32;2.53;;;1.77;;
18338;SDS011;9295;44.484;11.240;2022-07-10T03:25:00;4.43;;;1.70;;
18338;SDS011;9295;44.484;11.240;2022-07-10T03:27:29;2.60;;;1.50;;
18338;SDS011;9295;44.484;11.240;2022-07-10T03:29:58;4.87;;;1.83;;
18338;SDS011;9295;44.484;11.240;2022-07-10T03:32:26;4.90;;;2.10;;
18338;SDS011;9295;44.484;11.240;2022-07-10T03:34:55;9.50;;;2.20;;
18338;SDS011;9295;44.484;11.240;2022-07-10T03:37:24;3.20;;;2.00;;
18338;SDS011;9295;44.484;11.240;2022-07-10T03:39:54;5.63;;;2.30;;
18338;SDS011;9295;44.484;11.240;2022-07-10T03:42:22;3.13;;;1.90;;
18338;SDS011;9295;44.484;11.240;2022-07-10T03:44:51;4.70;;;1.77;;
18338;SDS011;9295;44.484;11.240;2022-07-10T03:47:19;4.20;;;2.23;;
18338;SDS011;9295;44.484;11.240;2022-07-10T03:49:48;3.03;;;1.60;;
18338;SDS011;9295;44.484;11.240;2022-07-10T03:52:17;3.50;;;1.97;;
18338;SDS011;9295;44.484;11.240;2022-07-10T03:54:46;5.23;;;2.07;;
18338;SDS011;9295;44.484;11.240;2022-07-10T03:57:16;3.23;;;1.80;;
18338;SDS011;9295;44.484;11.240;2022-07-10T04:00:02;3.10;;;2.00;;
18338;SDS011;9295;44.484;11.240;2022-07-10T04:02:37;3.23;;;1.80;;
18338;SDS011;9295;44.484;11.240;2022-07-10T04:05:06;9.43;;;2.33;;
18338;SDS011;9295;44.484;11.240;2022-07-10T04:07:35;2.90;;;1.90;;
18338;SDS011;9295;44.484;11.240;2022-07-10T04:10:05;4.60;;;1.97;;
18338;SDS011;9295;44.484;11.240;2022-07-10T04:12:38;3.83;;;2.13;;
18338;SDS011;9295;44.484;11.240;2022-07-10T04:15:06;3.80;;;2.00;;
18338;SDS011;9295;44.484;11.240;2022-07-10T04:17:35;3.67;;;1.87;;
18338;SDS011;9295;44.484;11.240;2022-07-10T04:20:05;4.27;;;2.03;;
18338;SDS011;9295;44.484;11.240;2022-07-10T04:22:34;4.23;;;2.00;;
18338;SDS011;9295;44.484;11.240;2022-07-10T04:25:04;3.43;;;2.03;;
18338;SDS011;9295;44.484;11.240;2022-07-10T04:27:33;3.10;;;1.90;;
18338;SDS011;9295;44.484;11.240;2022-07-10T04:30:04;3.90;;;1.90;;
18338;SDS011;9295;44.484;11.240;2022-07-10T04:32:33;4.20;;;1.90;;
18338;SDS011;9295;44.484;11.240;2022-07-10T04:35:02;2.17;;;1.50;;
18338;SDS011;9295;44.484;11.240;2022-07-10T04:37:31;3.03;;;1.60;;
18338;SDS011;9295;44.484;11.240;2022-07-10T04:40:01;2.50;;;1.40;;
18338;SDS011;9295;44.484;11.240;2022-07-10T04:42:29;2.97;;;1.90;;
18338;SDS011;9295;44.484;11.240;2022-07-10T04:44:58;2.70;;;1.77;;
18338;SDS011;9295;44.484;11.240;2022-07-10T04:47:28;5.13;;;1.87;;
18338;SDS011;9295;44.484;11.240;2022-07-10T04:49:57;3.90;;;1.63;;
18338;SDS011;9295;44.484;11.240;2022-07-10T04:52:26;5.10;;;1.60;;
18338;SDS011;9295;44.484;11.240;2022-07-10T04:54:54;3.10;;;1.60;;
18338;SDS011;9295;44.484;11.240;2022-07-10T04:57:23;4.83;;;1.87;;
18338;SDS011;9295;44.484;11.240;2022-07-10T04:59:51;4.67;;;1.50;;
18338;SDS011;9295;44.484;11.240;2022-07-10T05:02:20;3.03;;;1.70;;
18338;SDS011;9295;44.484;11.240;2022-07-10T05:04:50;4.10;;;1.70;;
18338;SDS011;9295;44.484;11.240;2022-07-10T05:07:19;2.83;;;1.37;;
18338;SDS011;9295;44.484;11.240;2022-07-10T05:09:47;2.90;;;1.50;;
18338;SDS011;9295;44.484;11.240;2022-07-10T05:12:16;2.57;;;1.30;;
18338;SDS011;9295;44.484;11.240;2022-07-10T05:14:44;2.00;;;1.13;;
18338;SDS011;9295;44.484;11.240;2022-07-10T05:17:13;2.93;;;1.50;;
18338;SDS011;9295;44.484;11.240;2022-07-10T05:19:41;4.93;;;1.50;;
18338;SDS011;9295;44.484;11.240;2022-07-10T05:22:11;2.50;;;1.30;;
18338;SDS011;9295;44.484;11.240;2022-07-10T05:24:40;2.10;;;1.30;;
18338;SDS011;9295;44.484;11.240;2022-07-10T05:27:08;3.63;;;1.50;;
18338;SDS011;9295;44.484;11.240;2022-07-10T05:29:37;2.70;;;1.40;;
18338;SDS011;9295;44.484;11.240;2022-07-10T05:32:06;5.93;;;1.43;;
18338;SDS011;9295;44.484;11.240;2022-07-10T05:34:35;2.60;;;1.60;;
18338;SDS011;9295;44.484;11.240;2022-07-10T05:37:04;2.60;;;1.40;;
18338;SDS011;9295;44.484;11.240;2022-07-10T05:39:35;2.70;;;1.43;;
18338;SDS011;9295;44.484;11.240;2022-07-10T05:42:04;2.27;;;1.53;;
18338;SDS011;9295;44.484;11.240;2022-07-10T05:44:32;2.53;;;1.57;;
18338;SDS011;9295;44.484;11.240;2022-07-10T05:47:01;6.90;;;1.60;;
18338;SDS011;9295;44.484;11.240;2022-07-10T05:49:30;2.67;;;1.50;;
18338;SDS011;9295;44.484;11.240;2022-07-10T05:51:58;6.30;;;1.90;;
18338;SDS011;9295;44.484;11.240;2022-07-10T05:54:27;4.60;;;1.80;;
18338;SDS011;9295;44.484;11.240;2022-07-10T05:56:57;5.73;;;1.70;;
18338;SDS011;9295;44.484;11.240;2022-07-10T05:59:26;2.80;;;1.50;;
18338;SDS011;9295;44.484;11.240;2022-07-10T06:01:54;3.07;;;1.50;;
18338;SDS011;9295;44.484;11.240;2022-07-10T06:04:23;6.30;;;1.93;;
18338;SDS011;9295;44.484;11.240;2022-07-10T06:06:52;9.50;;;1.40;;
18338;SDS011;9295;44.484;11.240;2022-07-10T06:09:20;5.13;;;1.80;;
18338;SDS011;9295;44.484;11.240;2022-07-10T06:11:49;3.30;;;1.70;;
18338;SDS011;9295;44.484;11.240;2022-07-10T06:14:19;4.37;;;1.50;;
18338;SDS011;9295;44.484;11.240;2022-07-10T06:16:47;4.80;;;1.60;;
18338;SDS011;9295;44.484;11.240;2022-07-10T06:19:16;3.30;;;1.50;;
18338;SDS011;9295;44.484;11.240;2022-07-10T06:21:44;3.30;;;1.37;;
18338;SDS011;9295;44.484;11.240;2022-07-10T06:24:13;5.67;;;2.20;;
18338;SDS011;9295;44.484;11.240;2022-07-10T06:26:41;5.63;;;1.40;;
18338;SDS011;9295;44.484;11.240;2022-07-10T06:29:10;2.93;;;1.40;;
18338;SDS011;9295;44.484;11.240;2022-07-10T06:31:40;16.90;;;1.50;;
18338;SDS011;9295;44.484;11.240;2022-07-10T06:34:08;6.53;;;1.47;;
18338;SDS011;9295;44.484;11.240;2022-07-10T06:36:37;3.87;;;1.40;;
18338;SDS011;9295;44.484;11.240;2022-07-10T06:39:05;6.43;;;1.20;;
18338;SDS011;9295;44.484;11.240;2022-07-10T06:41:34;4.13;;;1.40;;
18338;SDS011;9295;44.484;11.240;2022-07-10T06:44:21;5.50;;;1.50;;
18338;SDS011;9295;44.484;11.240;2022-07-10T06:46:51;6.03;;;1.60;;
18338;SDS011;9295;44.484;11.240;2022-07-10T06:49:33;4.57;;;1.60;;
18338;SDS011;9295;44.484;11.240;2022-07-10T06:52:02;5.20;;;1.50;;
18338;SDS011;9295;44.484;11.240;2022-07-10T06:54:37;2.70;;;1.43;;
18338;SDS011;9295;44.484;11.240;2022-07-10T06:57:06;4.00;;;1.53;;
18338;SDS011;9295;44.484;11.240;2022-07-10T06:59:35;3.10;;;1.30;;
18338;SDS011;9295;44.484;11.240;2022-07-10T07:02:05;3.80;;;1.50;;
18338;SDS011;9295;44.484;11.240;2022-07-10T07:04:34;4.10;;;1.60;;
18338;SDS011;9295;44.484;11.240;2022-07-10T07:07:02;5.50;;;1.40;;
18338;SDS011;9295;44.484;11.240;2022-07-10T07:09:31;2.17;;;1.13;;
18338;SDS011;9295;44.484;11.240;2022-07-10T07:12:00;2.57;;;1.10;;
18338;SDS011;9295;44.484;11.240;2022-07-10T07:14:28;2.20;;;1.30;;
18338;SDS011;9295;44.484;11.240;2022-07-10T07:17:00;2.37;;;1.37;;
18338;SDS011;9295;44.484;11.240;2022-07-10T07:19:34;2.33;;;1.30;;
18338;SDS011;9295;44.484;11.240;2022-07-10T07:22:20;2.70;;;1.30;;
18338;SDS011;9295;44.484;11.240;2022-07-10T07:25:12;2.57;;;1.30;;
18338;SDS011;9295;44.484;11.240;2022-07-10T07:27:41;2.20;;;1.20;;
18338;SDS011;9295;44.484;11.240;2022-07-10T07:30:10;2.40;;;1.40;;
18338;SDS011;9295;44.484;11.240;2022-07-10T07:32:41;2.50;;;1.47;;
18338;SDS011;9295;44.484;11.240;2022-07-10T07:35:13;2.33;;;1.10;;
18338;SDS011;9295;44.484;11.240;2022-07-10T07:37:43;3.90;;;1.67;;
18338;SDS011;9295;44.484;11.240;2022-07-10T07:40:14;2.47;;;1.30;;
18338;SDS011;9295;44.484;11.240;2022-07-10T07:42:43;4.60;;;1.50;;
18338;SDS011;9295;44.484;11.240;2022-07-10T07:45:12;3.60;;;1.40;;
18338;SDS011;9295;44.484;11.240;2022-07-10T07:47:44;4.27;;;1.80;;
18338;SDS011;9295;44.484;11.240;2022-07-10T07:50:15;2.57;;;1.33;;
18338;SDS011;9295;44.484;11.240;2022-07-10T07:52:46;2.77;;;1.30;;
18338;SDS011;9295;44.484;11.240;2022-07-10T07:55:15;2.77;;;1.20;;
18338;SDS011;9295;44.484;11.240;2022-07-10T07:57:45;4.17;;;1.20;;
18338;SDS011;9295;44.484;11.240;2022-07-10T08:00:15;5.47;;;1.30;;
18338;SDS011;9295;44.484;11.240;2022-07-10T08:02:45;2.20;;;1.30;;
18338;SDS011;9295;44.484;11.240;2022-07-10T08:05:15;3.77;;;1.30;;
18338;SDS011;9295;44.484;11.240;2022-07-10T08:07:45;3.00;;;1.23;;
18338;SDS011;9295;44.484;11.240;2022-07-10T08:10:15;1.90;;;1.20;;
18338;SDS011;9295;44.484;11.240;2022-07-10T08:12:45;2.43;;;1.20;;
18338;SDS011;9295;44.484;11.240;2022-07-10T08:15:14;2.73;;;1.33;;
18338;SDS011;9295;44.484;11.240;2022-07-10T08:17:46;1.83;;;1.13;;
18338;SDS011;9295;44.484;11.240;2022-07-10T08:20:17;2.60;;;1.10;;
18338;SDS011;9295;44.484;11.240;2022-07-10T08:22:46;2.87;;;1.20;;
18338;SDS011;9295;44.484;11.240;2022-07-10T08:25:21;2.43;;;1.10;;
18338;SDS011;9295;44.484;11.240;2022-07-10T08:27:50;3.27;;;1.50;;
18338;SDS011;9295;44.484;11.240;2022-07-10T08:30:19;2.60;;;1.20;;
18338;SDS011;9295;44.484;11.240;2022-07-10T08:32:47;3.03;;;1.27;;
18338;SDS011;9295;44.484;11.240;2022-07-10T08:35:18;2.07;;;0.93;;
18338;SDS011;9295;44.484;11.240;2022-07-10T08:37:46;2.20;;;1.00;;
18338;SDS011;9295;44.484;11.240;2022-07-10T08:40:15;2.43;;;1.23;;
18338;SDS011;9295;44.484;11.240;2022-07-10T08:42:45;2.80;;;1.20;;
18338;SDS011;9295;44.484;11.240;2022-07-10T08:45:14;2.83;;;1.30;;
18338;SDS011;9295;44.484;11.240;2022-07-10T08:47:42;2.63;;;1.20;;
18338;SDS011;9295;44.484;11.240;2022-07-10T08:50:15;2.37;;;1.30;;
18338;SDS011;9295;44.484;11.240;2022-07-10T08:52:51;1.70;;;1.10;;
18338;SDS011;9295;44.484;11.240;2022-07-10T08:55:23;2.70;;;1.10;;
18338;SDS011;9295;44.484;11.240;2022-07-10T08:57:54;11.73;;;1.80;;
18338;SDS011;9295;44.484;11.240;2022-07-10T09:00:23;3.07;;;1.20;;
18338;SDS011;9295;44.484;11.240;2022-07-10T09:02:53;3.60;;;1.03;;
18338;SDS011;9295;44.484;11.240;2022-07-10T09:05:23;6.50;;;1.00;;
18338;SDS011;9295;44.484;11.240;2022-07-10T09:07:53;1.73;;;1.17;;
18338;SDS011;9295;44.484;11.240;2022-07-10T09:10:24;1.90;;;1.13;;
18338;SDS011;9295;44.484;11.240;2022-07-10T09:12:54;3.80;;;1.50;;
18338;SDS011;9295;44.484;11.240;2022-07-10T09:15:24;1.90;;;1.20;;
18338;SDS011;9295;44.484;11.240;2022-07-10T09:17:56;2.57;;;1.10;;
18338;SDS011;9295;44.484;11.240;2022-07-10T09:20:30;1.87;;;1.00;;
18338;SDS011;9295;44.484;11.240;2022-07-10T09:23:08;2.70;;;1.40;;
18338;SDS011;9295;44.484;11.240;2022-07-10T09:25:45;3.57;;;1.17;;
18338;SDS011;9295;44.484;11.240;2022-07-10T09:28:16;1.80;;;1.00;;
18338;SDS011;9295;44.484;11.240;2022-07-10T09:30:46;2.67;;;1.20;;
18338;SDS011;9295;44.484;11.240;2022-07-10T09:33:20;4.90;;;1.30;;
18338;SDS011;9295;44.484;11.240;2022-07-10T09:35:59;2.17;;;1.17;;
18338;SDS011;9295;44.484;11.240;2022-07-10T09:38:48;3.27;;;1.10;;
18338;SDS011;9295;44.484;11.240;2022-07-10T09:41:18;1.90;;;1.00;;
18338;SDS011;9295;44.484;11.240;2022-07-10T09:43:49;1.90;;;1.10;;
18338;SDS011;9295;44.484;11.240;2022-07-10T09:46:20;2.83;;;1.30;;
18338;SDS011;9295;44.484;11.240;2022-07-10T09:49:00;2.80;;;1.33;;
18338;SDS011;9295;44.484;11.240;2022-07-10T09:51:32;1.80;;;1.00;;
18338;SDS011;9295;44.484;11.240;2022-07-10T09:54:03;3.37;;;1.40;;
18338;SDS011;9295;44.484;11.240;2022-07-10T09:56:34;2.20;;;1.20;;
18338;SDS011;9295;44.484;11.240;2022-07-10T09:59:09;3.50;;;1.03;;
18338;SDS011;9295;44.484;11.240;2022-07-10T10:01:44;2.57;;;1.10;;
18338;SDS011;9295;44.484;11.240;2022-07-10T10:04:14;3.10;;;1.13;;
18338;SDS011;9295;44.484;11.240;2022-07-10T10:06:49;2.57;;;1.17;;
18338;SDS011;9295;44.484;11.240;2022-07-10T10:09:21;2.70;;;1.23;;
18338;SDS011;9295;44.484;11.240;2022-07-10T10:11:54;4.67;;;1.30;;
18338;SDS011;9295;44.484;11.240;2022-07-10T10:14:26;2.63;;;1.20;;
18338;SDS011;9295;44.484;11.240;2022-07-10T10:16:56;2.17;;;1.10;;
18338;SDS011;9295;44.484;11.240;2022-07-10T10:19:26;2.23;;;1.03;;
18338;SDS011;9295;44.484;11.240;2022-07-10T10:22:17;3.43;;;1.17;;
18338;SDS011;9295;44.484;11.240;2022-07-10T10:24:46;2.50;;;1.30;;
18338;SDS011;9295;44.484;11.240;2022-07-10T10:27:16;2.57;;;1.30;;
18338;SDS011;9295;44.484;11.240;2022-07-10T10:29:46;4.00;;;1.20;;
18338;SDS011;9295;44.484;11.240;2022-07-10T10:32:18;2.50;;;1.23;;
18338;SDS011;9295;44.484;11.240;2022-07-10T10:34:47;2.60;;;1.40;;
18338;SDS011;9295;44.484;11.240;2022-07-10T10:37:33;2.07;;;1.00;;
18338;SDS011;9295;44.484;11.240;2022-07-10T10:40:04;2.83;;;1.20;;
18338;SDS011;9295;44.484;11.240;2022-07-10T10:42:35;3.40;;;1.47;;
18338;SDS011;9295;44.484;11.240;2022-07-10T10:45:24;1.97;;;1.10;;
18338;SDS011;9295;44.484;11.240;2022-07-10T10:47:57;2.83;;;1.57;;
18338;SDS011;9295;44.484;11.240;2022-07-10T10:50:47;2.07;;;1.10;;
18338;SDS011;9295;44.484;11.240;2022-07-10T10:53:19;3.47;;;1.30;;
18338;SDS011;9295;44.484;11.240;2022-07-10T10:58:52;2.47;;;1.30;;
18338;SDS011;9295;44.484;11.240;2022-07-10T11:01:28;2.20;;;1.10;;
18338;SDS011;9295;44.484;11.240;2022-07-10T11:04:16;1.90;;;1.17;;
18338;SDS011;9295;44.484;11.240;2022-07-10T11:06:47;5.57;;;1.30;;
18338;SDS011;9295;44.484;11.240;2022-07-10T11:09:28;1.83;;;1.10;;
18338;SDS011;9295;44.484;11.240;2022-07-10T11:12:01;3.43;;;1.60;;
18338;SDS011;9295;44.484;11.240;2022-07-10T11:14:32;3.70;;;1.50;;
18338;SDS011;9295;44.484;11.240;2022-07-10T11:17:03;3.70;;;1.50;;
18338;SDS011;9295;44.484;11.240;2022-07-10T11:19:32;2.33;;;1.30;;
18338;SDS011;9295;44.484;11.240;2022-07-10T11:22:22;8.83;;;1.70;;
18338;SDS011;9295;44.484;11.240;2022-07-10T11:25:28;2.40;;;1.40;;
18338;SDS011;9295;44.484;11.240;2022-07-10T11:28:09;4.93;;;1.30;;
18338;SDS011;9295;44.484;11.240;2022-07-10T11:30:46;2.87;;;1.23;;
18338;SDS011;9295;44.484;11.240;2022-07-10T11:33:17;2.27;;;1.27;;
18338;SDS011;9295;44.484;11.240;2022-07-10T11:35:47;3.93;;;1.30;;
18338;SDS011;9295;44.484;11.240;2022-07-10T11:38:20;2.70;;;1.30;;
18338;SDS011;9295;44.484;11.240;2022-07-10T11:40:51;4.60;;;1.57;;
18338;SDS011;9295;44.484;11.240;2022-07-10T11:43:21;2.50;;;1.30;;
18338;SDS011;9295;44.484;11.240;2022-07-10T11:45:52;2.80;;;1.17;;
18338;SDS011;9295;44.484;11.240;2022-07-10T11:48:21;1.87;;;1.10;;
18338;SDS011;9295;44.484;11.240;2022-07-10T11:50:51;4.10;;;1.37;;
18338;SDS011;9295;44.484;11.240;2022-07-10T11:53:23;3.80;;;1.30;;
18338;SDS011;9295;44.484;11.240;2022-07-10T11:55:54;4.03;;;1.23;;
18338;SDS011;9295;44.484;11.240;2022-07-10T11:58:22;3.13;;;1.27;;
18338;SDS011;9295;44.484;11.240;2022-07-10T12:00:57;2.60;;;1.40;;
18338;SDS011;9295;44.484;11.240;2022-07-10T12:03:28;3.37;;;1.60;;
18338;SDS011;9295;44.484;11.240;2022-07-10T12:06:00;2.00;;;1.27;;
18338;SDS011;9295;44.484;11.240;2022-07-10T12:08:30;2.97;;;1.40;;
18338;SDS011;9295;44.484;11.240;2022-07-10T12:11:13;2.47;;;1.20;;
18338;SDS011;9295;44.484;11.240;2022-07-10T12:13:42;3.03;;;1.43;;
18338;SDS011;9295;44.484;11.240;2022-07-10T12:16:11;2.73;;;1.30;;
18338;SDS011;9295;44.484;11.240;2022-07-10T12:18:40;2.40;;;1.60;;
18338;SDS011;9295;44.484;11.240;2022-07-10T12:21:11;2.93;;;1.50;;
18338;SDS011;9295;44.484;11.240;2022-07-10T12:23:42;3.43;;;1.47;;
18338;SDS011;9295;44.484;11.240;2022-07-10T12:26:16;2.57;;;1.30;;
18338;SDS011;9295;44.484;11.240;2022-07-10T12:28:52;4.20;;;1.40;;
18338;SDS011;9295;44.484;11.240;2022-07-10T12:31:22;3.93;;;1.30;;
18338;SDS011;9295;44.484;11.240;2022-07-10T12:33:52;4.23;;;1.30;;
18338;SDS011;9295;44.484;11.240;2022-07-10T12:36:24;1.90;;;1.27;;
18338;SDS011;9295;44.484;11.240;2022-07-10T12:38:57;2.80;;;1.40;;
18338;SDS011;9295;44.484;11.240;2022-07-10T12:41:27;2.20;;;1.40;;
18338;SDS011;9295;44.484;11.240;2022-07-10T12:43:55;4.53;;;1.47;;
18338;SDS011;9295;44.484;11.240;2022-07-10T12:46:24;1.90;;;1.30;;
18338;SDS011;9295;44.484;11.240;2022-07-10T12:49:04;2.40;;;1.30;;
18338;SDS011;9295;44.484;11.240;2022-07-10T12:51:41;4.07;;;1.37;;
18338;SDS011;9295;44.484;11.240;2022-07-10T12:54:33;2.10;;;1.20;;
18338;SDS011;9295;44.484;11.240;2022-07-10T12:57:04;3.00;;;1.40;;
18338;SDS011;9295;44.484;11.240;2022-07-10T12:59:34;5.53;;;1.50;;
18338;SDS011;9295;44.484;11.240;2022-07-10T13:02:16;3.80;;;1.50;;
18338;SDS011;9295;44.484;11.240;2022-07-10T13:04:52;2.30;;;1.50;;
18338;SDS011;9295;44.484;11.240;2022-07-10T13:07:31;2.83;;;1.47;;
18338;SDS011;9295;44.484;11.240;2022-07-10T13:10:00;4.77;;;1.53;;
18338;SDS011;9295;44.484;11.240;2022-07-10T13:12:32;1.87;;;1.20;;
18338;SDS011;9295;44.484;11.240;2022-07-10T13:15:02;3.20;;;1.53;;
18338;SDS011;9295;44.484;11.240;2022-07-10T13:17:31;2.40;;;1.40;;
18338;SDS011;9295;44.484;11.240;2022-07-10T13:19:59;2.60;;;1.60;;
18338;SDS011;9295;44.484;11.240;2022-07-10T13:22:28;2.73;;;1.50;;
18338;SDS011;9295;44.484;11.240;2022-07-10T13:24:57;2.37;;;1.27;;
18338;SDS011;9295;44.484;11.240;2022-07-10T13:27:25;3.73;;;1.37;;
18338;SDS011;9295;44.484;11.240;2022-07-10T13:29:56;3.37;;;1.73;;
18338;SDS011;9295;44.484;11.240;2022-07-10T13:32:24;6.00;;;1.57;;
18338;SDS011;9295;44.484;11.240;2022-07-10T13:34:56;3.47;;;1.20;;
18338;SDS011;9295;44.484;11.240;2022-07-10T13:37:25;3.33;;;1.83;;
18338;SDS011;9295;44.484;11.240;2022-07-10T13:39:54;2.90;;;1.40;;
18338;SDS011;9295;44.484;11.240;2022-07-10T13:42:23;3.30;;;1.50;;
18338;SDS011;9295;44.484;11.240;2022-07-10T13:44:52;2.83;;;1.47;;
18338;SDS011;9295;44.484;11.240;2022-07-10T13:47:24;2.97;;;1.40;;
18338;SDS011;9295;44.484;11.240;2022-07-10T13:49:53;2.90;;;1.60;;
18338;SDS011;9295;44.484;11.240;2022-07-10T13:52:22;3.97;;;1.37;;
18338;SDS011;9295;44.484;11.240;2022-07-10T13:54:50;2.60;;;1.57;;
18338;SDS011;9295;44.484;11.240;2022-07-10T13:57:19;2.70;;;1.37;;
18338;SDS011;9295;44.484;11.240;2022-07-10T13:59:48;2.70;;;1.60;;
18338;SDS011;9295;44.484;11.240;2022-07-10T14:02:17;2.40;;;1.50;;
18338;SDS011;9295;44.484;11.240;2022-07-10T14:04:47;3.10;;;1.57;;
18338;SDS011;9295;44.484;11.240;2022-07-10T14:07:15;2.90;;;1.53;;
18338;SDS011;9295;44.484;11.240;2022-07-10T14:09:44;3.37;;;1.67;;
18338;SDS011;9295;44.484;11.240;2022-07-10T14:12:13;3.03;;;1.50;;
18338;SDS011;9295;44.484;11.240;2022-07-10T14:14:41;2.50;;;1.50;;
18338;SDS011;9295;44.484;11.240;2022-07-10T14:17:10;5.10;;;1.50;;
18338;SDS011;9295;44.484;11.240;2022-07-10T14:19:39;2.70;;;1.50;;
18338;SDS011;9295;44.484;11.240;2022-07-10T14:22:09;2.60;;;1.53;;
18338;SDS011;9295;44.484;11.240;2022-07-10T14:24:38;3.17;;;1.40;;
18338;SDS011;9295;44.484;11.240;2022-07-10T14:27:06;2.90;;;1.60;;
18338;SDS011;9295;44.484;11.240;2022-07-10T14:29:35;7.60;;;1.40;;
18338;SDS011;9295;44.484;11.240;2022-07-10T14:32:04;2.80;;;1.50;;
18338;SDS011;9295;44.484;11.240;2022-07-10T14:34:39;3.63;;;1.60;;
18338;SDS011;9295;44.484;11.240;2022-07-10T14:37:07;3.07;;;1.43;;
18338;SDS011;9295;44.484;11.240;2022-07-10T14:39:37;3.73;;;1.37;;
18338;SDS011;9295;44.484;11.240;2022-07-10T14:42:06;7.33;;;1.50;;
18338;SDS011;9295;44.484;11.240;2022-07-10T14:44:35;2.33;;;1.40;;
18338;SDS011;9295;44.484;11.240;2022-07-10T14:47:04;5.40;;;1.70;;
18338;SDS011;9295;44.484;11.240;2022-07-10T14:49:33;1.80;;;1.10;;
18338;SDS011;9295;44.484;11.240;2022-07-10T14:52:01;3.17;;;1.43;;
18338;SDS011;9295;44.484;11.240;2022-07-10T14:54:32;7.87;;;1.60;;
18338;SDS011;9295;44.484;11.240;2022-07-10T14:57:01;3.67;;;1.37;;
18338;SDS011;9295;44.484;11.240;2022-07-10T14:59:30;2.10;;;1.40;;
18338;SDS011;9295;44.484;11.240;2022-07-10T15:01:58;3.10;;;1.77;;
18338;SDS011;9295;44.484;11.240;2022-07-10T15:04:27;2.70;;;1.60;;
18338;SDS011;9295;44.484;11.240;2022-07-10T15:06:56;2.93;;;1.37;;
18338;SDS011;9295;44.484;11.240;2022-07-10T15:09:25;4.93;;;1.53;;
18338;SDS011;9295;44.484;11.240;2022-07-10T15:11:54;3.40;;;1.60;;
18338;SDS011;9295;44.484;11.240;2022-07-10T15:14:23;2.40;;;1.40;;